Terminal Aerodrome Forecast
Issued by NWS

Home | Current Version | Previous Version | Text Only | Print | Product List | Glossary On
Versions: 1 2 3 4 5 6 7 8 9 10 11 12 13 14
000
FTUS43 KEAX 051700
TAFMKC
TAF
KMKC 051727Z 0518/0618 18012KT P6SM SCT050
     FM052000 16012KT P6SM VCTS SCT050CB
     FM060000 15011KT P6SM SCT050
     FM061000 16014G25KT P6SM FEW040 SCT100
     FM061500 17015G25KT P6SM -SHRA VCTS BKN030CB=

USA.gov is the U.S. government's official web portal to all federal, state and local government web resources and services.